Time;durP1;ratioP1;P1;durP2;ratioP2;P2;SDS_P1;SDS_P2;PMS_P1;PMS_P2;Temp;Humidity;BMP_temperature;BMP_pressure;BME280_temperature;BME280_humidity;BME280_pressure;Samples;Min_cycle;Max_cycle;Signal;HPM_P1;HPM_P2
2023/05/24 00:01:57;;;;;;;1.67;0.60;;;;;;;;;;5013051;28;20032;-68
2023/05/24 00:04:24;;;;;;;5.47;0.60;;;;;;;;;;5011094;28;20140;-69
2023/05/24 00:06:53;;;;;;;1.48;0.50;;;;;;;;;;5011648;28;20482;-67
2023/05/24 00:09:20;;;;;;;0.88;0.30;;;;;;;;;;5011895;28;20406;-69
2023/05/24 00:11:46;;;;;;;1.77;0.60;;;;;;;;;;5011642;28;20041;-68
2023/05/24 00:14:16;;;;;;;1.05;0.40;;;;;;;;;;5011371;28;20037;-67
2023/05/24 00:16:45;;;;;;;3.58;0.63;;;;;;;;;;5011653;28;20025;-68
2023/05/24 00:19:17;;;;;;;1.70;0.50;;;;;;;;;;5009662;28;20523;-67
2023/05/24 00:21:44;;;;;;;1.33;0.50;;;;;;;;;;5010074;28;20150;-68
2023/05/24 00:24:11;;;;;;;0.90;0.40;;;;;;;;;;5011921;28;20037;-68
2023/05/24 00:26:38;;;;;;;1.17;0.40;;;;;;;;;;5010957;28;20041;-68
2023/05/24 00:29:05;;;;;;;1.13;0.45;;;;;;;;;;5011039;28;20120;-67
2023/05/24 00:31:31;;;;;;;2.70;0.50;;;;;;;;;;5022158;28;20033;-68
2023/05/24 00:33:58;;;;;;;0.80;0.38;;;;;;;;;;5011373;28;20136;-66
2023/05/24 00:36:27;;;;;;;1.05;0.40;;;;;;;;;;5011292;28;20136;-70
2023/05/24 00:38:54;;;;;;;2.45;0.50;;;;;;;;;;4985962;28;20070;-68
2023/05/24 00:41:21;;;;;;;1.13;0.40;;;;;;;;;;4986118;28;20041;-68
2023/05/24 00:43:48;;;;;;;1.50;0.50;;;;;;;;;;4985979;28;21869;-67
2023/05/24 00:46:16;;;;;;;1.08;0.40;;;;;;;;;;4988636;28;20026;-66
2023/05/24 00:48:43;;;;;;;0.32;0.30;;;;;;;;;;4986851;28;20093;-66
2023/05/24 00:51:10;;;;;;;1.30;0.47;;;;;;;;;;4986083;28;20559;-68
2023/05/24 00:53:37;;;;;;;2.13;0.40;;;;;;;;;;4985560;28;20145;-68
2023/05/24 00:56:03;;;;;;;1.50;0.50;;;;;;;;;;4986979;28;20044;-68
2023/05/24 00:58:31;;;;;;;1.10;0.40;;;;;;;;;;4980694;28;20100;-67
2023/05/24 01:00:59;;;;;;;1.42;0.50;;;;;;;;;;4986915;28;20088;-69
2023/05/24 01:03:28;;;;;;;0.73;0.30;;;;;;;;;;4986508;28;20078;-65
2023/05/24 01:06:00;;;;;;;2.00;0.50;;;;;;;;;;4985876;28;20691;-67
2023/05/24 01:08:35;;;;;;;0.38;0.30;;;;;;;;;;4985871;28;20034;-67
2023/05/24 01:11:07;;;;;;;1.88;0.77;;;;;;;;;;4983762;28;20052;-68
2023/05/24 01:13:46;;;;;;;2.20;0.52;;;;;;;;;;4985802;28;20058;-67
2023/05/24 01:16:20;;;;;;;4.57;0.50;;;;;;;;;;4985107;28;20100;-69
2023/05/24 01:18:47;;;;;;;0.65;0.30;;;;;;;;;;4978309;28;20147;-68
2023/05/24 01:21:33;;;;;;;1.02;0.40;;;;;;;;;;4986685;28;20037;-68
2023/05/24 01:24:08;;;;;;;0.30;0.30;;;;;;;;;;5025445;28;20072;-67
2023/05/24 01:26:42;;;;;;;1.77;0.40;;;;;;;;;;5011611;28;20037;-68
2023/05/24 01:29:09;;;;;;;1.00;0.30;;;;;;;;;;5010504;28;20041;-66
2023/05/24 01:31:36;;;;;;;1.77;0.60;;;;;;;;;;5013637;28;20030;-65
2023/05/24 01:34:03;;;;;;;1.20;0.50;;;;;;;;;;5013482;28;20643;-65
2023/05/24 01:36:29;;;;;;;1.25;0.40;;;;;;;;;;5010822;28;20558;-67
2023/05/24 01:38:56;;;;;;;1.58;0.40;;;;;;;;;;5013604;28;20057;-67
2023/05/24 01:41:52;;;;;;;4.90;0.40;;;;;;;;;;5007645;28;20037;-66
2023/05/24 01:44:19;;;;;;;2.42;0.30;;;;;;;;;;5004873;28;20051;-66
2023/05/24 01:46:47;;;;;;;1.95;0.50;;;;;;;;;;5013916;28;20034;-68
2023/05/24 01:49:22;;;;;;;1.02;0.40;;;;;;;;;;5015007;28;20033;-67
2023/05/24 01:51:53;;;;;;;1.25;0.40;;;;;;;;;;5015252;28;20044;-66
2023/05/24 01:54:24;;;;;;;5.43;0.50;;;;;;;;;;5014485;28;20025;-67
2023/05/24 01:56:52;;;;;;;2.47;0.60;;;;;;;;;;5014133;28;20029;-67
2023/05/24 01:59:20;;;;;;;0.88;0.40;;;;;;;;;;5011953;28;20116;-68
2023/05/24 02:01:47;;;;;;;1.38;0.50;;;;;;;;;;5015631;28;20049;-68
2023/05/24 02:04:14;;;;;;;3.00;0.50;;;;;;;;;;5015525;28;20092;-67
2023/05/24 02:06:41;;;;;;;5.32;0.65;;;;;;;;;;5014965;28;20045;-68
2023/05/24 02:09:07;;;;;;;0.82;0.30;;;;;;;;;;5016246;28;20042;-67
2023/05/24 02:11:34;;;;;;;2.53;0.52;;;;;;;;;;5015072;28;20148;-68
2023/05/24 02:14:00;;;;;;;0.85;0.40;;;;;;;;;;5014212;28;20041;-67
2023/05/24 02:16:29;;;;;;;1.23;0.40;;;;;;;;;;5011162;28;20025;-62
2023/05/24 02:18:59;;;;;;;1.88;0.40;;;;;;;;;;5015668;28;21432;-65
2023/05/24 02:21:27;;;;;;;3.58;0.57;;;;;;;;;;5011427;28;20603;-66
2023/05/24 02:23:54;;;;;;;0.82;0.38;;;;;;;;;;5012579;28;20038;-66
2023/05/24 02:26:22;;;;;;;3.55;0.40;;;;;;;;;;5011083;28;20030;-66
2023/05/24 02:28:48;;;;;;;1.13;0.40;;;;;;;;;;5026093;28;20045;-68
2023/05/24 02:31:15;;;;;;;2.35;0.40;;;;;;;;;;5024943;28;20470;-67
2023/05/24 02:33:42;;;;;;;1.17;0.40;;;;;;;;;;5016010;28;20191;-67
2023/05/24 02:36:09;;;;;;;1.17;0.35;;;;;;;;;;5015600;28;20037;-66
2023/05/24 02:38:36;;;;;;;0.75;0.35;;;;;;;;;;5009445;28;20053;-66
2023/05/24 02:41:03;;;;;;;1.08;0.40;;;;;;;;;;5015687;28;20076;-66
2023/05/24 02:43:30;;;;;;;1.70;0.40;;;;;;;;;;5013764;28;20117;-66
2023/05/24 02:45:56;;;;;;;3.10;0.50;;;;;;;;;;5013538;28;20037;-67
2023/05/24 02:48:23;;;;;;;1.60;0.45;;;;;;;;;;5013882;28;20087;-66
2023/05/24 02:50:49;;;;;;;1.55;0.40;;;;;;;;;;5015655;28;20037;-67
2023/05/24 02:53:16;;;;;;;2.28;0.50;;;;;;;;;;5018912;28;20069;-66
2023/05/24 02:55:45;;;;;;;1.25;0.30;;;;;;;;;;5014863;28;20628;-66
2023/05/24 02:58:12;;;;;;;0.43;0.28;;;;;;;;;;5014356;28;20052;-70
2023/05/24 03:00:39;;;;;;;2.25;0.60;;;;;;;;;;5013032;28;20025;-67
2023/05/24 03:03:05;;;;;;;1.75;0.50;;;;;;;;;;5015310;28;20041;-69
2023/05/24 03:05:32;;;;;;;1.88;0.52;;;;;;;;;;5014471;28;20550;-67
2023/05/24 03:07:59;;;;;;;2.05;0.50;;;;;;;;;;5013778;28;20045;-66
2023/05/24 03:10:25;;;;;;;0.98;0.40;;;;;;;;;;5011666;28;20064;-69
2023/05/24 03:12:52;;;;;;;2.85;0.52;;;;;;;;;;5001119;28;20052;-64
2023/05/24 03:15:19;;;;;;;3.45;0.50;;;;;;;;;;5015465;28;20045;-65
2023/05/24 03:17:45;;;;;;;0.77;0.32;;;;;;;;;;5012578;28;20033;-66
2023/05/24 03:20:12;;;;;;;1.50;0.50;;;;;;;;;;5011959;28;20513;-66
2023/05/24 03:22:39;;;;;;;1.52;0.40;;;;;;;;;;5015546;28;20046;-70
2023/05/24 03:25:07;;;;;;;3.90;0.40;;;;;;;;;;5009409;28;20062;-70
2023/05/24 03:27:34;;;;;;;0.88;0.30;;;;;;;;;;5023760;28;20918;-69
2023/05/24 03:30:01;;;;;;;4.40;0.50;;;;;;;;;;5012585;28;20353;-69
2023/05/24 03:32:28;;;;;;;1.77;0.40;;;;;;;;;;5012493;28;20041;-69
2023/05/24 03:34:56;;;;;;;1.88;0.50;;;;;;;;;;5013534;28;20045;-68
2023/05/24 03:37:22;;;;;;;2.00;0.57;;;;;;;;;;5012273;28;20075;-69
2023/05/24 03:39:49;;;;;;;0.93;0.30;;;;;;;;;;5012009;28;20060;-70
2023/05/24 03:42:16;;;;;;;2.33;0.45;;;;;;;;;;5022341;28;20419;-68
2023/05/24 03:44:43;;;;;;;2.67;0.50;;;;;;;;;;5012737;28;20538;-69
2023/05/24 03:47:09;;;;;;;2.13;0.60;;;;;;;;;;5011426;28;20099;-69
2023/05/24 03:49:36;;;;;;;3.53;0.60;;;;;;;;;;5022774;28;20075;-68
2023/05/24 03:52:03;;;;;;;1.48;0.40;;;;;;;;;;5014775;28;20095;-67
2023/05/24 03:54:29;;;;;;;0.95;0.40;;;;;;;;;;5011476;28;20065;-68
2023/05/24 03:56:56;;;;;;;1.70;0.47;;;;;;;;;;5013711;28;20038;-67
2023/05/24 03:59:22;;;;;;;1.00;0.43;;;;;;;;;;5013090;28;20041;-68
2023/05/24 04:01:49;;;;;;;1.30;0.40;;;;;;;;;;5022898;28;20102;-68
2023/05/24 04:04:16;;;;;;;1.17;0.50;;;;;;;;;;5014844;28;20042;-69
2023/05/24 04:06:42;;;;;;;3.72;0.60;;;;;;;;;;5013153;28;20060;-69
2023/05/24 04:09:09;;;;;;;1.17;0.40;;;;;;;;;;5011732;28;20041;-69
2023/05/24 04:11:36;;;;;;;1.33;0.50;;;;;;;;;;5003611;28;20111;-66
2023/05/24 04:14:02;;;;;;;1.38;0.50;;;;;;;;;;5027335;28;20045;-68
2023/05/24 04:16:32;;;;;;;1.50;0.40;;;;;;;;;;5011140;28;20041;-70
2023/05/24 04:19:03;;;;;;;3.08;0.55;;;;;;;;;;5012743;28;20049;-63
2023/05/24 04:21:31;;;;;;;1.90;0.52;;;;;;;;;;5013427;28;20049;-65
2023/05/24 04:24:00;;;;;;;2.42;0.50;;;;;;;;;;5027802;28;20041;-67
2023/05/24 04:26:30;;;;;;;3.38;0.85;;;;;;;;;;5012238;28;20061;-70
2023/05/24 04:28:57;;;;;;;2.08;0.60;;;;;;;;;;5023976;28;20041;-67
2023/05/24 04:31:25;;;;;;;5.88;0.70;;;;;;;;;;5022254;28;20740;-69
2023/05/24 04:33:51;;;;;;;3.00;0.50;;;;;;;;;;5022617;28;20045;-68
2023/05/24 04:36:18;;;;;;;1.67;0.40;;;;;;;;;;5016719;28;20564;-69
2023/05/24 04:38:45;;;;;;;1.98;0.60;;;;;;;;;;5012911;28;20049;-69
2023/05/24 04:41:12;;;;;;;2.50;0.77;;;;;;;;;;5011412;28;20041;-68
2023/05/24 04:43:39;;;;;;;1.77;0.52;;;;;;;;;;5011818;28;20541;-68
2023/05/24 04:46:06;;;;;;;1.98;0.63;;;;;;;;;;5011718;28;20494;-69
2023/05/24 04:48:33;;;;;;;2.92;0.60;;;;;;;;;;5012215;28;20068;-69
2023/05/24 04:50:59;;;;;;;1.65;0.40;;;;;;;;;;5009640;28;20379;-69
2023/05/24 04:53:26;;;;;;;3.78;0.70;;;;;;;;;;5010554;28;20158;-68
2023/05/24 04:55:53;;;;;;;3.92;0.60;;;;;;;;;;5010538;28;20164;-68
2023/05/24 04:58:19;;;;;;;4.05;0.93;;;;;;;;;;5009179;28;20128;-69
2023/05/24 05:00:46;;;;;;;6.95;0.80;;;;;;;;;;5009199;28;20057;-69
2023/05/24 05:03:13;;;;;;;1.17;0.40;;;;;;;;;;5020659;28;20418;-69
2023/05/24 05:05:39;;;;;;;4.72;0.60;;;;;;;;;;5008133;28;20029;-69
2023/05/24 05:08:06;;;;;;;4.47;0.82;;;;;;;;;;5010886;28;20041;-69
2023/05/24 05:10:33;;;;;;;2.60;0.85;;;;;;;;;;5010079;28;20058;-69
2023/05/24 05:12:59;;;;;;;2.85;1.05;;;;;;;;;;5012933;28;20566;-69
2023/05/24 05:15:26;;;;;;;5.90;0.85;;;;;;;;;;5009125;28;20057;-69
2023/05/24 05:17:53;;;;;;;2.45;0.75;;;;;;;;;;5010726;28;20041;-69
2023/05/24 05:20:20;;;;;;;1.17;0.50;;;;;;;;;;5014110;28;20403;-70
2023/05/24 05:22:49;;;;;;;1.88;0.50;;;;;;;;;;5017343;28;20116;-71
2023/05/24 05:25:16;;;;;;;1.67;0.57;;;;;;;;;;5017404;28;20042;-70
2023/05/24 05:27:43;;;;;;;1.70;0.50;;;;;;;;;;5016669;28;20036;-69
2023/05/24 05:30:10;;;;;;;2.58;0.60;;;;;;;;;;5015283;28;20451;-69
2023/05/24 05:32:36;;;;;;;1.75;0.52;;;;;;;;;;5014682;28;20037;-70
2023/05/24 05:35:04;;;;;;;0.80;0.40;;;;;;;;;;5017519;28;20499;-69
2023/05/24 05:37:30;;;;;;;1.65;0.52;;;;;;;;;;5017771;28;20491;-69
2023/05/24 05:39:57;;;;;;;2.33;0.57;;;;;;;;;;5030690;28;20065;-69
2023/05/24 05:42:23;;;;;;;1.58;0.40;;;;;;;;;;5017313;28;20045;-69
2023/05/24 05:44:51;;;;;;;1.60;0.45;;;;;;;;;;5017508;28;20038;-68
2023/05/24 05:47:18;;;;;;;1.45;0.40;;;;;;;;;;5017512;28;20034;-69
2023/05/24 05:49:44;;;;;;;3.67;0.40;;;;;;;;;;5014916;28;20037;-69
2023/05/24 05:52:11;;;;;;;1.05;0.40;;;;;;;;;;5015949;28;20041;-69
2023/05/24 05:54:37;;;;;;;2.75;0.88;;;;;;;;;;5017243;28;20037;-69
2023/05/24 05:57:04;;;;;;;1.67;0.50;;;;;;;;;;5016263;28;20899;-69
2023/05/24 05:59:34;;;;;;;1.45;0.40;;;;;;;;;;5014398;28;20056;-69
2023/05/24 06:02:02;;;;;;;1.90;0.40;;;;;;;;;;5019343;28;20048;-69
2023/05/24 06:04:28;;;;;;;2.03;0.45;;;;;;;;;;5012871;28;20084;-69
2023/05/24 06:06:55;;;;;;;2.95;0.50;;;;;;;;;;5018619;28;20056;-70
2023/05/24 06:09:22;;;;;;;1.15;0.40;;;;;;;;;;5009631;28;20058;-71
2023/05/24 06:11:49;;;;;;;2.20;0.50;;;;;;;;;;5031768;28;20091;-71
2023/05/24 06:14:21;;;;;;;2.95;0.50;;;;;;;;;;5030018;28;20385;-68
2023/05/24 06:16:47;;;;;;;0.95;0.40;;;;;;;;;;5034304;28;20049;-68
2023/05/24 06:19:15;;;;;;;1.65;0.50;;;;;;;;;;5037692;28;20049;-70
2023/05/24 06:21:46;;;;;;;1.83;0.47;;;;;;;;;;5035148;28;20037;-70
2023/05/24 06:24:20;;;;;;;1.13;0.47;;;;;;;;;;5032836;28;20039;-70
2023/05/24 06:27:06;;;;;;;0.85;0.40;;;;;;;;;;5007293;28;20042;-69
2023/05/24 06:29:32;;;;;;;2.17;0.70;;;;;;;;;;5009357;28;20733;-69
2023/05/24 06:31:59;;;;;;;4.32;0.73;;;;;;;;;;5005780;28;20406;-70
2023/05/24 06:34:26;;;;;;;1.98;0.63;;;;;;;;;;5005193;28;20030;-68
2023/05/24 06:37:14;;;;;;;6.32;0.95;;;;;;;;;;4985547;28;20160;-71
2023/05/24 06:39:40;;;;;;;2.35;0.70;;;;;;;;;;4975229;28;20402;-69
2023/05/24 06:42:07;;;;;;;2.50;0.80;;;;;;;;;;4985333;28;20215;-69
2023/05/24 06:44:34;;;;;;;3.85;0.60;;;;;;;;;;4987093;28;20537;-69
2023/05/24 06:47:01;;;;;;;2.38;0.68;;;;;;;;;;4984780;28;20287;-70
2023/05/24 06:49:28;;;;;;;3.25;0.80;;;;;;;;;;4985010;28;20046;-68
2023/05/24 06:51:54;;;;;;;3.92;0.60;;;;;;;;;;4984658;28;20030;-68
2023/05/24 06:54:21;;;;;;;2.38;0.70;;;;;;;;;;4983783;28;20049;-69
2023/05/24 06:56:48;;;;;;;2.22;0.70;;;;;;;;;;4984804;28;20069;-68
2023/05/24 06:59:15;;;;;;;3.88;0.88;;;;;;;;;;4989143;28;20045;-68
2023/05/24 07:01:42;;;;;;;4.05;0.60;;;;;;;;;;5002591;28;20107;-70
2023/05/24 07:04:09;;;;;;;2.10;0.60;;;;;;;;;;5003790;28;20045;-69
2023/05/24 07:06:39;;;;;;;2.17;0.60;;;;;;;;;;4994056;28;20053;-69
2023/05/24 07:09:05;;;;;;;1.83;0.60;;;;;;;;;;4987080;28;21135;-69
2023/05/24 07:11:32;;;;;;;2.58;0.60;;;;;;;;;;4988511;28;20590;-68
2023/05/24 07:13:59;;;;;;;3.42;0.60;;;;;;;;;;5009348;28;20041;-70
2023/05/24 07:16:25;;;;;;;1.30;0.52;;;;;;;;;;5030507;28;20122;-68
2023/05/24 07:18:52;;;;;;;1.73;0.60;;;;;;;;;;5024888;28;20675;-70
2023/05/24 07:21:18;;;;;;;5.13;0.70;;;;;;;;;;5026756;28;20124;-69
2023/05/24 07:23:45;;;;;;;1.48;0.50;;;;;;;;;;5029267;28;20052;-69
2023/05/24 07:26:12;;;;;;;2.17;0.70;;;;;;;;;;5032346;28;20095;-70
2023/05/24 07:28:39;;;;;;;5.93;0.75;;;;;;;;;;5009723;28;20047;-69
2023/05/24 07:31:06;;;;;;;1.63;0.50;;;;;;;;;;5025764;28;20029;-69
2023/05/24 07:33:33;;;;;;;1.95;0.60;;;;;;;;;;5011341;28;20070;-69
2023/05/24 07:36:00;;;;;;;4.68;0.80;;;;;;;;;;5019620;28;20029;-69
2023/05/24 07:38:28;;;;;;;1.23;0.50;;;;;;;;;;5029577;28;20040;-70
2023/05/24 07:40:54;;;;;;;2.08;0.60;;;;;;;;;;5032366;28;20053;-70
2023/05/24 07:43:21;;;;;;;1.92;0.60;;;;;;;;;;5030666;28;20041;-70
2023/05/24 07:45:48;;;;;;;1.83;0.52;;;;;;;;;;5033144;28;20045;-70
2023/05/24 07:48:14;;;;;;;4.10;0.85;;;;;;;;;;5020752;28;20084;-69
2023/05/24 07:50:47;;;;;;;1.90;0.60;;;;;;;;;;5012179;28;20214;-70
2023/05/24 07:53:14;;;;;;;1.85;0.60;;;;;;;;;;5020344;28;20041;-70
2023/05/24 07:55:41;;;;;;;2.05;0.60;;;;;;;;;;5000502;28;20271;-70
2023/05/24 07:58:07;;;;;;;2.17;0.70;;;;;;;;;;5030847;28;20052;-70
2023/05/24 08:00:34;;;;;;;2.65;0.60;;;;;;;;;;4976507;28;20050;-68
2023/05/24 08:03:02;;;;;;;2.90;0.75;;;;;;;;;;4971355;28;20030;-72
2023/05/24 08:05:47;;;;;;;2.53;0.52;;;;;;;;;;4962026;28;20078;-70
2023/05/24 08:08:14;;;;;;;2.70;0.80;;;;;;;;;;4954496;28;20046;-71
2023/05/24 08:10:41;;;;;;;1.90;0.70;;;;;;;;;;4961755;28;20078;-69
2023/05/24 08:13:07;;;;;;;2.55;0.77;;;;;;;;;;4952499;28;20069;-70
2023/05/24 08:15:34;;;;;;;3.00;0.98;;;;;;;;;;4961547;28;20030;-69
2023/05/24 08:18:00;;;;;;;2.38;0.73;;;;;;;;;;4963252;28;20047;-70
2023/05/24 08:20:27;;;;;;;2.47;0.90;;;;;;;;;;4964578;28;20042;-71
2023/05/24 08:22:54;;;;;;;4.47;1.20;;;;;;;;;;4965599;28;20038;-70
2023/05/24 08:25:21;;;;;;;2.60;0.90;;;;;;;;;;4964799;28;20058;-70
2023/05/24 08:27:47;;;;;;;2.95;1.00;;;;;;;;;;4963998;28;20169;-70
2023/05/24 08:30:14;;;;;;;7.22;1.27;;;;;;;;;;4963151;28;20042;-69
2023/05/24 08:32:40;;;;;;;3.08;1.25;;;;;;;;;;4963577;28;20035;-69
2023/05/24 08:35:07;;;;;;;3.00;1.30;;;;;;;;;;4963057;28;20042;-69
2023/05/24 08:37:34;;;;;;;3.58;1.38;;;;;;;;;;4974863;28;20046;-69
2023/05/24 08:40:02;;;;;;;3.85;1.38;;;;;;;;;;5001643;28;20172;-69
2023/05/24 08:42:30;;;;;;;3.50;1.52;;;;;;;;;;5005312;28;20137;-70
2023/05/24 08:45:04;;;;;;;3.15;1.27;;;;;;;;;;5012433;28;20069;-69
2023/05/24 08:47:32;;;;;;;3.97;1.70;;;;;;;;;;5028871;28;20252;-68
2023/05/24 08:49:59;;;;;;;3.72;1.50;;;;;;;;;;5029304;28;20037;-68
2023/05/24 08:52:27;;;;;;;4.47;1.60;;;;;;;;;;5025013;28;20056;-67
2023/05/24 08:54:54;;;;;;;3.67;1.80;;;;;;;;;;5032272;28;20116;-68
2023/05/24 08:57:21;;;;;;;5.18;1.83;;;;;;;;;;5030288;28;20041;-68
2023/05/24 08:59:48;;;;;;;4.05;1.95;;;;;;;;;;5030535;28;20037;-69
2023/05/24 09:02:15;;;;;;;4.20;1.95;;;;;;;;;;5031479;28;20508;-68
2023/05/24 09:04:43;;;;;;;4.20;2.10;;;;;;;;;;5029446;28;20102;-69
2023/05/24 09:07:11;;;;;;;4.28;1.95;;;;;;;;;;5030215;28;20044;-69
2023/05/24 09:09:43;;;;;;;4.68;2.20;;;;;;;;;;5029578;28;20075;-69
2023/05/24 09:12:11;;;;;;;4.53;2.35;;;;;;;;;;5029220;28;20043;-70
2023/05/24 09:14:38;;;;;;;4.50;2.30;;;;;;;;;;5030220;28;20040;-70
2023/05/24 09:17:05;;;;;;;4.15;1.95;;;;;;;;;;5030605;28;20852;-70
2023/05/24 09:19:32;;;;;;;5.60;2.47;;;;;;;;;;5029111;28;20140;-69
2023/05/24 09:21:58;;;;;;;4.00;2.17;;;;;;;;;;5030408;28;20448;-69
2023/05/24 09:24:25;;;;;;;6.85;2.63;;;;;;;;;;5030322;28;20045;-68
2023/05/24 09:26:52;;;;;;;7.45;2.83;;;;;;;;;;5033934;28;20084;-67
2023/05/24 09:29:23;;;;;;;4.93;2.65;;;;;;;;;;5032576;28;20052;-70
2023/05/24 09:31:50;;;;;;;5.50;2.50;;;;;;;;;;5027878;28;20057;-69
2023/05/24 09:34:17;;;;;;;4.95;2.72;;;;;;;;;;5024017;28;20036;-69
2023/05/24 09:36:47;;;;;;;4.88;2.60;;;;;;;;;;5030242;28;20132;-70
2023/05/24 09:39:15;;;;;;;5.28;2.83;;;;;;;;;;5031155;28;20053;-67
2023/05/24 09:41:44;;;;;;;5.88;2.83;;;;;;;;;;5022525;28;20052;-68
2023/05/24 09:44:14;;;;;;;5.20;3.17;;;;;;;;;;5020060;28;20786;-70
2023/05/24 09:46:40;;;;;;;5.68;3.05;;;;;;;;;;5023466;28;22030;-68
2023/05/24 09:49:27;;;;;;;5.47;3.00;;;;;;;;;;5004395;28;20041;-69
2023/05/24 09:51:54;;;;;;;8.18;3.47;;;;;;;;;;5007688;28;20042;-68
2023/05/24 09:54:21;;;;;;;6.10;3.20;;;;;;;;;;5006347;28;20133;-69
2023/05/24 09:56:48;;;;;;;7.30;2.95;;;;;;;;;;5009277;28;20050;-69
2023/05/24 09:59:14;;;;;;;5.72;3.10;;;;;;;;;;5003760;28;20045;-69
2023/05/24 10:01:41;;;;;;;6.10;3.17;;;;;;;;;;4996734;28;20148;-69
2023/05/24 10:04:08;;;;;;;5.53;3.15;;;;;;;;;;5005941;28;20034;-69
2023/05/24 10:06:38;;;;;;;5.78;3.22;;;;;;;;;;5007383;28;20044;-70
2023/05/24 10:09:06;;;;;;;5.10;2.95;;;;;;;;;;5009057;28;20042;-68
2023/05/24 10:11:36;;;;;;;5.70;3.38;;;;;;;;;;5011427;28;20897;-66
2023/05/24 10:14:07;;;;;;;10.48;3.33;;;;;;;;;;5012362;28;20092;-69
2023/05/24 10:16:40;;;;;;;5.75;3.00;;;;;;;;;;5000089;28;20041;-71
2023/05/24 10:19:07;;;;;;;6.97;3.25;;;;;;;;;;4983487;28;20541;-70
2023/05/24 10:21:37;;;;;;;6.45;3.75;;;;;;;;;;4976059;28;20102;-70
2023/05/24 10:24:05;;;;;;;7.22;3.70;;;;;;;;;;5005613;28;20047;-70
2023/05/24 10:26:32;;;;;;;5.53;3.17;;;;;;;;;;5005319;28;20040;-69
2023/05/24 10:29:04;;;;;;;5.53;3.13;;;;;;;;;;5021753;28;20129;-69
2023/05/24 10:31:36;;;;;;;6.53;3.65;;;;;;;;;;5033945;28;20073;-69
2023/05/24 10:34:05;;;;;;;10.32;3.88;;;;;;;;;;5017643;28;20401;-67
2023/05/24 10:36:32;;;;;;;6.50;3.42;;;;;;;;;;5029409;28;20045;-69
2023/05/24 10:38:59;;;;;;;5.25;3.22;;;;;;;;;;5033726;28;20595;-69
2023/05/24 10:41:26;;;;;;;7.55;3.63;;;;;;;;;;5014535;28;20053;-69
2023/05/24 10:43:53;;;;;;;6.10;3.55;;;;;;;;;;5034338;28;20065;-68
2023/05/24 10:46:21;;;;;;;7.18;3.35;;;;;;;;;;5032002;28;20188;-70
2023/05/24 10:49:01;;;;;;;6.15;3.47;;;;;;;;;;5033657;28;20147;-69
2023/05/24 10:51:36;;;;;;;8.63;3.45;;;;;;;;;;5031955;28;20041;-70
2023/05/24 10:54:16;;;;;;;5.70;3.22;;;;;;;;;;5033967;28;20041;-69
2023/05/24 10:56:47;;;;;;;5.28;2.78;;;;;;;;;;5010508;28;20351;-69
2023/05/24 10:59:27;;;;;;;7.50;2.58;;;;;;;;;;5015775;28;20052;-70
2023/05/24 11:01:55;;;;;;;5.75;2.63;;;;;;;;;;5033400;28;20073;-69
2023/05/24 11:04:22;;;;;;;5.10;2.78;;;;;;;;;;5014859;28;20041;-69
2023/05/24 11:06:54;;;;;;;5.47;3.03;;;;;;;;;;5015965;28;20041;-68
2023/05/24 11:09:22;;;;;;;5.40;3.08;;;;;;;;;;5023121;28;22407;-69
2023/05/24 11:11:49;;;;;;;5.38;2.95;;;;;;;;;;5030574;28;20045;-62
2023/05/24 11:14:21;;;;;;;5.05;2.90;;;;;;;;;;5035779;28;20045;-67
2023/05/24 11:16:50;;;;;;;5.88;3.00;;;;;;;;;;5031072;28;21741;-62
2023/05/24 11:19:23;;;;;;;5.35;2.83;;;;;;;;;;5013527;28;20474;-59
2023/05/24 11:21:52;;;;;;;6.55;3.28;;;;;;;;;;5029746;28;20043;-58
2023/05/24 11:24:19;;;;;;;7.00;3.30;;;;;;;;;;5033069;28;20044;-61
2023/05/24 11:26:46;;;;;;;5.53;2.97;;;;;;;;;;5032196;28;20335;-59
2023/05/24 11:29:16;;;;;;;5.85;2.53;;;;;;;;;;5031039;28;20037;-59
2023/05/24 11:31:56;;;;;;;8.63;3.45;;;;;;;;;;5014191;28;20030;-59
2023/05/24 11:34:26;;;;;;;5.82;2.90;;;;;;;;;;5031937;28;20375;-59
2023/05/24 11:36:53;;;;;;;5.20;2.90;;;;;;;;;;5032484;28;20805;-62
2023/05/24 11:39:20;;;;;;;5.57;2.80;;;;;;;;;;5014290;28;20532;-62
2023/05/24 11:41:47;;;;;;;5.30;2.97;;;;;;;;;;5031436;28;20057;-59
2023/05/24 11:44:18;;;;;;;6.57;3.15;;;;;;;;;;5033711;28;20037;-62
2023/05/24 11:46:44;;;;;;;5.50;2.80;;;;;;;;;;5032111;28;20041;-59
2023/05/24 11:49:15;;;;;;;6.72;3.30;;;;;;;;;;5030304;28;20039;-59
2023/05/24 11:51:42;;;;;;;6.85;3.00;;;;;;;;;;5029970;28;20052;-58
2023/05/24 11:54:08;;;;;;;5.20;2.83;;;;;;;;;;5029913;28;20490;-64
2023/05/24 11:56:35;;;;;;;7.15;3.05;;;;;;;;;;5031147;28;20049;-65
2023/05/24 11:59:05;;;;;;;6.50;2.83;;;;;;;;;;5025478;28;20408;-64
2023/05/24 12:01:32;;;;;;;7.60;3.47;;;;;;;;;;5025252;28;20350;-62
2023/05/24 12:03:59;;;;;;;6.03;2.70;;;;;;;;;;5029269;28;20590;-67
2023/05/24 12:06:33;;;;;;;5.07;2.78;;;;;;;;;;5029663;28;20043;-66
2023/05/24 12:09:00;;;;;;;5.10;2.80;;;;;;;;;;5031799;28;20049;-67
2023/05/24 12:11:27;;;;;;;5.10;2.67;;;;;;;;;;5028417;28;20045;-68
2023/05/24 12:13:53;;;;;;;6.60;3.33;;;;;;;;;;5031443;28;20049;-68
2023/05/24 12:16:20;;;;;;;5.40;3.10;;;;;;;;;;5029938;28;20055;-67
2023/05/24 12:18:47;;;;;;;5.18;2.80;;;;;;;;;;5030650;28;20129;-69
2023/05/24 12:21:13;;;;;;;7.40;3.15;;;;;;;;;;5031047;28;20581;-64
2023/05/24 12:23:40;;;;;;;5.45;3.03;;;;;;;;;;5029613;28;20049;-69
2023/05/24 12:26:07;;;;;;;5.53;3.03;;;;;;;;;;5024276;28;20114;-67
2023/05/24 12:28:37;;;;;;;7.68;3.35;;;;;;;;;;5029052;28;21774;-67
2023/05/24 12:31:05;;;;;;;5.70;3.03;;;;;;;;;;5027635;28;20069;-67
2023/05/24 12:33:31;;;;;;;6.65;3.03;;;;;;;;;;5028487;28;20645;-66
2023/05/24 12:35:59;;;;;;;7.95;3.55;;;;;;;;;;5029467;28;20033;-68
2023/05/24 12:38:26;;;;;;;5.80;2.95;;;;;;;;;;5030439;28;20033;-66
2023/05/24 12:40:53;;;;;;;4.82;2.97;;;;;;;;;;5029076;28;20045;-67
2023/05/24 12:43:22;;;;;;;5.93;3.15;;;;;;;;;;5028218;28;20124;-67
2023/05/24 12:45:49;;;;;;;8.23;3.60;;;;;;;;;;5029858;28;20402;-67
2023/05/24 12:48:16;;;;;;;7.80;3.22;;;;;;;;;;5029529;28;20041;-64
2023/05/24 12:50:42;;;;;;;5.78;3.38;;;;;;;;;;5030733;28;20065;-68
2023/05/24 12:53:09;;;;;;;6.82;3.20;;;;;;;;;;5029071;28;20041;-69
2023/05/24 12:55:36;;;;;;;7.75;3.92;;;;;;;;;;5029812;28;20045;-69
2023/05/24 12:58:05;;;;;;;9.57;3.42;;;;;;;;;;5026926;28;20389;-67
2023/05/24 13:00:31;;;;;;;5.63;3.10;;;;;;;;;;5022489;28;20126;-68
2023/05/24 13:02:58;;;;;;;5.82;3.33;;;;;;;;;;5029732;28;20036;-70
2023/05/24 13:05:26;;;;;;;7.57;3.50;;;;;;;;;;5029487;28;20037;-68
2023/05/24 13:07:53;;;;;;;7.20;3.35;;;;;;;;;;5023145;28;20073;-67
2023/05/24 13:10:20;;;;;;;8.10;3.60;;;;;;;;;;5029184;28;20091;-68
2023/05/24 13:12:46;;;;;;;5.85;3.17;;;;;;;;;;5028285;28;20045;-67
2023/05/24 13:15:13;;;;;;;5.72;3.38;;;;;;;;;;5031292;28;20041;-67
2023/05/24 13:17:41;;;;;;;6.32;3.30;;;;;;;;;;5029019;28;20943;-66
2023/05/24 13:20:10;;;;;;;5.55;3.30;;;;;;;;;;5029330;28;20076;-67
2023/05/24 13:22:37;;;;;;;9.85;3.90;;;;;;;;;;5023106;28;20114;-67
2023/05/24 13:25:08;;;;;;;8.38;3.65;;;;;;;;;;5031061;28;20153;-67
2023/05/24 13:27:35;;;;;;;15.40;3.38;;;;;;;;;;5028496;28;20103;-68
2023/05/24 13:30:01;;;;;;;6.70;3.30;;;;;;;;;;5011998;28;20076;-67
2023/05/24 13:32:28;;;;;;;6.07;3.40;;;;;;;;;;5023721;28;20045;-68
2023/05/24 13:34:54;;;;;;;7.07;3.05;;;;;;;;;;5030841;28;20049;-63
2023/05/24 13:37:21;;;;;;;9.52;4.07;;;;;;;;;;5028293;28;20497;-68
2023/05/24 13:39:48;;;;;;;6.63;3.50;;;;;;;;;;5011569;28;20418;-67
2023/05/24 13:42:15;;;;;;;10.85;3.60;;;;;;;;;;5027307;28;20048;-67
2023/05/24 13:44:42;;;;;;;6.13;3.38;;;;;;;;;;5028628;28;20045;-65
2023/05/24 13:47:09;;;;;;;9.68;3.50;;;;;;;;;;5033848;28;20045;-66
2023/05/24 13:49:36;;;;;;;7.25;3.45;;;;;;;;;;5032527;28;20752;-68
2023/05/24 13:52:03;;;;;;;6.35;3.60;;;;;;;;;;5018554;28;20134;-67
2023/05/24 13:54:50;;;;;;;9.10;4.10;;;;;;;;;;5005139;28;20207;-66
2023/05/24 13:57:18;;;;;;;10.77;3.97;;;;;;;;;;4996210;28;20169;-66
2023/05/24 13:59:45;;;;;;;7.50;3.60;;;;;;;;;;4980263;28;20053;-64
2023/05/24 14:02:15;;;;;;;6.97;3.85;;;;;;;;;;5004665;28;20046;-67
2023/05/24 14:04:42;;;;;;;7.35;3.70;;;;;;;;;;5001416;28;20050;-68
2023/05/24 14:07:12;;;;;;;10.55;4.10;;;;;;;;;;5002620;28;20038;-68
2023/05/24 14:09:39;;;;;;;5.38;3.30;;;;;;;;;;4977230;28;20124;-68
2023/05/24 14:12:07;;;;;;;9.30;3.85;;;;;;;;;;4988213;28;20892;-69
2023/05/24 14:14:34;;;;;;;6.80;3.42;;;;;;;;;;5003207;28;20041;-69
2023/05/24 14:17:00;;;;;;;6.30;3.25;;;;;;;;;;4994052;28;20034;-68
2023/05/24 14:19:27;;;;;;;8.80;4.38;;;;;;;;;;4988207;28;20052;-69
2023/05/24 14:21:53;;;;;;;8.50;3.30;;;;;;;;;;4989111;28;20125;-68
2023/05/24 14:24:20;;;;;;;7.45;4.22;;;;;;;;;;5001672;28;20231;-69
2023/05/24 14:26:47;;;;;;;8.20;3.92;;;;;;;;;;5024651;28;20041;-70
2023/05/24 14:29:14;;;;;;;10.23;3.90;;;;;;;;;;5012687;28;20100;-69
2023/05/24 14:31:43;;;;;;;7.78;3.83;;;;;;;;;;5023524;28;20060;-69
2023/05/24 14:34:10;;;;;;;7.45;3.75;;;;;;;;;;5022198;28;20040;-68
2023/05/24 14:36:37;;;;;;;8.98;3.97;;;;;;;;;;5003335;28;20096;-68
2023/05/24 14:39:08;;;;;;;15.18;4.68;;;;;;;;;;5009239;28;20091;-69
2023/05/24 14:41:36;;;;;;;7.78;3.80;;;;;;;;;;5013058;28;20136;-68
2023/05/24 14:44:03;;;;;;;5.97;3.70;;;;;;;;;;4996904;28;20041;-68
2023/05/24 14:46:50;;;;;;;10.93;3.88;;;;;;;;;;4982375;28;20038;-69
2023/05/24 14:49:17;;;;;;;7.38;3.90;;;;;;;;;;4958556;28;20046;-68